Time;durP1;ratioP1;P1;durP2;ratioP2;P2;SDS_P1;SDS_P2;PMS_P1;PMS_P2;Temp;Humidity;BMP_temperature;BMP_pressure;BME280_temperature;BME280_humidity;BME280_pressure;Samples;Min_cycle;Max_cycle;Signal;HPM_P1;HPM_P2
2021/06/09 00:01:01;;;;;;;8.7;6;;;;;;;;;;;;;
2021/06/09 00:03:26;;;;;;;5.5;5;;;;;;;;;;;;;
2021/06/09 00:05:52;;;;;;;8.4;5.2;;;;;;;;;;;;;
2021/06/09 00:08:17;;;;;;;6.6;5.5;;;;;;;;;;;;;
2021/06/09 00:10:43;;;;;;;5.9;5.3;;;;;;;;;;;;;
2021/06/09 00:13:08;;;;;;;6.9;5.3;;;;;;;;;;;;;
2021/06/09 00:15:39;;;;;;;6.2;5.6;;;;;;;;;;;;;
2021/06/09 00:18:04;;;;;;;6.7;5.9;;;;;;;;;;;;;
2021/06/09 00:20:30;;;;;;;7.7;5.2;;;;;;;;;;;;;
2021/06/09 00:22:55;;;;;;;6.2;5.6;;;;;;;;;;;;;
2021/06/09 00:25:20;;;;;;;7.3;5.4;;;;;;;;;;;;;
2021/06/09 00:27:45;;;;;;;6.2;5.6;;;;;;;;;;;;;
2021/06/09 00:30:10;;;;;;;6;5.1;;;;;;;;;;;;;
2021/06/09 00:32:36;;;;;;;7.6;5.5;;;;;;;;;;;;;
2021/06/09 00:35:01;;;;;;;6.2;5.1;;;;;;;;;;;;;
2021/06/09 00:37:28;;;;;;;6.9;4.8;;;;;;;;;;;;;
2021/06/09 00:39:53;;;;;;;6;4.8;;;;;;;;;;;;;
2021/06/09 00:42:19;;;;;;;6;4.7;;;;;;;;;;;;;
2021/06/09 00:44:56;;;;;;;6;5.2;;;;;;;;;;;;;
2021/06/09 00:47:10;;;;;;;6.4;4.9;;;;;;;;;;;;;
2021/06/09 00:49:35;;;;;;;6.6;5.3;;;;;;;;;;;;;
2021/06/09 00:52:01;;;;;;;7.1;5.5;;;;;;;;;;;;;
2021/06/09 00:54:26;;;;;;;9.3;5.4;;;;;;;;;;;;;
2021/06/09 00:56:51;;;;;;;6.8;5.2;;;;;;;;;;;;;
2021/06/09 00:59:16;;;;;;;8.5;5;;;;;;;;;;;;;
2021/06/09 01:01:41;;;;;;;5.7;5.1;;;;;;;;;;;;;
2021/06/09 01:04:07;;;;;;;6.1;5;;;;;;;;;;;;;
2021/06/09 01:06:32;;;;;;;5.6;4.6;;;;;;;;;;;;;
2021/06/09 01:08:57;;;;;;;6.8;5.1;;;;;;;;;;;;;
2021/06/09 01:11:22;;;;;;;6.4;5.4;;;;;;;;;;;;;
2021/06/09 01:13:48;;;;;;;6.5;4.9;;;;;;;;;;;;;
2021/06/09 01:16:13;;;;;;;6.7;5.4;;;;;;;;;;;;;
2021/06/09 01:18:38;;;;;;;5.9;5.3;;;;;;;;;;;;;
2021/06/09 01:21:03;;;;;;;8.7;5.4;;;;;;;;;;;;;
2021/06/09 01:23:28;;;;;;;7;5.8;;;;;;;;;;;;;
2021/06/09 01:25:54;;;;;;;6.1;5.1;;;;;;;;;;;;;
2021/06/09 01:28:19;;;;;;;7.7;5.8;;;;;;;;;;;;;
2021/06/09 01:30:44;;;;;;;8.1;5.7;;;;;;;;;;;;;
2021/06/09 01:33:10;;;;;;;7.3;5.8;;;;;;;;;;;;;
2021/06/09 01:35:35;;;;;;;7.2;5.5;;;;;;;;;;;;;
2021/06/09 01:38:01;;;;;;;5.8;5.2;;;;;;;;;;;;;
2021/06/09 01:40:27;;;;;;;7.1;5.5;;;;;;;;;;;;;
2021/06/09 01:42:53;;;;;;;5.8;5.2;;;;;;;;;;;;;
2021/06/09 01:45:18;;;;;;;5.9;5.3;;;;;;;;;;;;;
2021/06/09 01:47:43;;;;;;;6.1;5.4;;;;;;;;;;;;;
2021/06/09 01:50:08;;;;;;;6.7;5.3;;;;;;;;;;;;;
2021/06/09 01:52:34;;;;;;;6.5;5.2;;;;;;;;;;;;;
2021/06/09 01:55:00;;;;;;;6.4;5.6;;;;;;;;;;;;;
2021/06/09 01:57:26;;;;;;;6.9;5.6;;;;;;;;;;;;;
2021/06/09 01:59:51;;;;;;;9.4;5.6;;;;;;;;;;;;;
2021/06/09 02:02:17;;;;;;;6.5;5.3;;;;;;;;;;;;;
2021/06/09 02:04:42;;;;;;;8.1;5.9;;;;;;;;;;;;;
2021/06/09 02:07:08;;;;;;;10.3;5.2;;;;;;;;;;;;;
2021/06/09 02:09:33;;;;;;;7.9;5.3;;;;;;;;;;;;;
2021/06/09 02:11:59;;;;;;;6.3;5.1;;;;;;;;;;;;;
2021/06/09 02:14:24;;;;;;;5.7;5.1;;;;;;;;;;;;;
2021/06/09 02:16:50;;;;;;;5.3;4.8;;;;;;;;;;;;;
2021/06/09 02:19:15;;;;;;;6.5;5.4;;;;;;;;;;;;;
2021/06/09 02:21:40;;;;;;;6.1;5.1;;;;;;;;;;;;;
2021/06/09 02:24:05;;;;;;;5.5;5;;;;;;;;;;;;;
2021/06/09 02:26:30;;;;;;;7;5.1;;;;;;;;;;;;;
2021/06/09 02:28:57;;;;;;;9.2;5.3;;;;;;;;;;;;;
2021/06/09 02:31:21;;;;;;;6.4;5.4;;;;;;;;;;;;;
2021/06/09 02:33:47;;;;;;;6.3;5.4;;;;;;;;;;;;;
2021/06/09 02:36:12;;;;;;;6.2;5.4;;;;;;;;;;;;;
2021/06/09 02:38:38;;;;;;;8.4;5.6;;;;;;;;;;;;;
2021/06/09 02:41:03;;;;;;;6.8;5.3;;;;;;;;;;;;;
2021/06/09 02:43:32;;;;;;;7.3;5.5;;;;;;;;;;;;;
2021/06/09 02:45:54;;;;;;;6.6;5.6;;;;;;;;;;;;;
2021/06/09 02:48:19;;;;;;;6.4;5.7;;;;;;;;;;;;;
2021/06/09 02:50:44;;;;;;;9.8;5.7;;;;;;;;;;;;;
2021/06/09 02:53:09;;;;;;;10.8;6.1;;;;;;;;;;;;;
2021/06/09 02:55:35;;;;;;;6.4;5.7;;;;;;;;;;;;;
2021/06/09 02:58:00;;;;;;;6.8;5.6;;;;;;;;;;;;;
2021/06/09 03:00:26;;;;;;;6.6;5.5;;;;;;;;;;;;;
2021/06/09 03:02:51;;;;;;;7.6;5.7;;;;;;;;;;;;;
2021/06/09 03:05:16;;;;;;;7.9;5.4;;;;;;;;;;;;;
2021/06/09 03:07:42;;;;;;;6.2;5.3;;;;;;;;;;;;;
2021/06/09 03:10:08;;;;;;;6.3;5.3;;;;;;;;;;;;;
2021/06/09 03:12:36;;;;;;;5.8;5.2;;;;;;;;;;;;;
2021/06/09 03:15:10;;;;;;;6.9;5.6;;;;;;;;;;;;;
2021/06/09 03:17:25;;;;;;;6.7;5.8;;;;;;;;;;;;;
2021/06/09 03:19:51;;;;;;;6.7;6;;;;;;;;;;;;;
2021/06/09 03:22:19;;;;;;;6.4;5.7;;;;;;;;;;;;;
2021/06/09 03:24:46;;;;;;;7.1;5.8;;;;;;;;;;;;;
2021/06/09 03:27:11;;;;;;;6.4;5.6;;;;;;;;;;;;;
2021/06/09 03:29:36;;;;;;;7.2;5.7;;;;;;;;;;;;;
2021/06/09 03:32:01;;;;;;;7;6.2;;;;;;;;;;;;;
2021/06/09 03:34:26;;;;;;;6.6;5.9;;;;;;;;;;;;;
2021/06/09 03:36:51;;;;;;;6.6;6;;;;;;;;;;;;;
2021/06/09 03:39:16;;;;;;;7.7;5.9;;;;;;;;;;;;;
2021/06/09 03:41:41;;;;;;;5.8;5.3;;;;;;;;;;;;;
2021/06/09 03:44:07;;;;;;;8.4;5.7;;;;;;;;;;;;;
2021/06/09 03:46:32;;;;;;;6.7;6;;;;;;;;;;;;;
2021/06/09 03:48:57;;;;;;;6.9;6;;;;;;;;;;;;;
2021/06/09 03:51:24;;;;;;;8.1;6.7;;;;;;;;;;;;;
2021/06/09 03:53:49;;;;;;;7.5;6.3;;;;;;;;;;;;;
2021/06/09 03:56:15;;;;;;;10.2;5.9;;;;;;;;;;;;;
2021/06/09 03:58:41;;;;;;;9.2;6.3;;;;;;;;;;;;;
2021/06/09 04:02:33;;;;;;;9;6.5;;;;;;;15.1;94.36914;942.0825;;;;
2021/06/09 04:04:58;;;;;;;9.1;6;;;;;;;15.16;93.80762;942.0832;;;;
2021/06/09 04:07:26;;;;;;;8.5;6.6;;;;;;;15.2;93.6543;942.092;;;;
2021/06/09 04:09:51;;;;;;;8.5;6;;;;;;;15.23;92.9209;942.1275;;;;
2021/06/09 04:16:10;;;;;;;8;5.8;;;;;;;15.26;92.51074;942.0921;;;;
2021/06/09 04:18:38;;;;;;;7.1;5.9;;;;;;;15.29;92.52832;942.0815;;;;
2021/06/09 04:21:03;;;;;;;13.5;8.3;;;;;;;15.33;92.5166;942.0598;;;;
2021/06/09 04:23:29;;;;;;;12.8;9.7;;;;;;;15.41;92.47266;942.135;;;;
2021/06/09 04:25:54;;;;;;;15.5;9.3;;;;;;;15.42;92.46484;942.1425;;;;
2021/06/09 04:28:22;;;;;;;11.8;7.7;;;;;;;15.41;92.3457;942.1703;;;;
2021/06/09 04:30:48;;;;;;;10.8;8;;;;;;;15.43;92.55859;942.2067;;;;
2021/06/09 04:33:16;;;;;;;11.8;8.2;;;;;;;15.5;92.23926;942.192;;;;
2021/06/09 04:35:42;;;;;;;18.4;8.7;;;;;;;15.56;91.81348;942.244;;;;
2021/06/09 04:38:08;;;;;;;12.4;8.2;;;;;;;15.59;91.77148;942.2241;;;;
2021/06/09 04:40:33;;;;;;;11.6;7.7;;;;;;;15.6;91.75195;942.2097;;;;
2021/06/09 04:43:00;;;;;;;9.7;7.2;;;;;;;15.62;91.95215;942.2405;;;;
2021/06/09 04:45:25;;;;;;;10.1;6.9;;;;;;;15.56;92.01953;942.2159;;;;
2021/06/09 04:47:50;;;;;;;8.2;6.5;;;;;;;15.58;91.96582;942.2576;;;;
2021/06/09 04:50:15;;;;;;;7.4;6.4;;;;;;;15.37;92.35156;942.1472;;;;
2021/06/09 04:52:42;;;;;;;9;7;;;;;;;15.41;92.56641;942.2274;;;;
2021/06/09 04:55:07;;;;;;;10.3;8.3;;;;;;;15.38;92.90527;942.225;;;;
2021/06/09 04:57:34;;;;;;;8.4;7.3;;;;;;;15.36;92.98242;942.1817;;;;
2021/06/09 04:59:59;;;;;;;8.1;6.9;;;;;;;15.37;93.125;942.2065;;;;
2021/06/09 05:02:24;;;;;;;10.2;6.9;;;;;;;15.37;93.1709;942.1696;;;;
2021/06/09 05:04:50;;;;;;;9.6;6.2;;;;;;;15.37;93.32129;942.1239;;;;
2021/06/09 05:07:15;;;;;;;8.3;6;;;;;;;15.47;93.28418;942.1744;;;;
2021/06/09 05:09:42;;;;;;;7.2;6.2;;;;;;;15.5;92.81641;942.1567;;;;
2021/06/09 05:12:07;;;;;;;11.2;6.6;;;;;;;15.48;92.75293;942.209;;;;
2021/06/09 05:14:32;;;;;;;7.9;6.2;;;;;;;15.5;92.85156;942.1559;;;;
2021/06/09 05:17:02;;;;;;;8.6;6.3;;;;;;;15.58;92.9707;942.1468;;;;
2021/06/09 05:19:27;;;;;;;9.4;6.3;;;;;;;15.66;92.81445;942.1704;;;;
2021/06/09 05:24:19;;;;;;;8.3;6.4;;;;;;;15.71;92.27148;942.1671;;;;
2021/06/09 05:26:43;;;;;;;8.1;6.3;;;;;;;15.62;92.77246;942.132;;;;
2021/06/09 05:31:56;;;;;;;7.7;6.4;;;;;;;15.63;93.12305;942.0822;;;;
2021/06/09 05:34:22;;;;;;;8.6;5.8;;;;;;;15.67;93.14258;942.0491;;;;
2021/06/09 05:36:46;;;;;;;9.6;5.9;;;;;;;15.77;92.69922;941.9997;;;;
2021/06/09 05:39:12;;;;;;;7;5.7;;;;;;;15.87;92.21387;942.0952;;;;
2021/06/09 05:41:37;;;;;;;7.4;5.5;;;;;;;15.9;91.60645;942.0508;;;;
2021/06/09 05:44:03;;;;;;;5.9;5.3;;;;;;;15.93;91.47363;942.1157;;;;
2021/06/09 05:46:30;;;;;;;8.8;5.8;;;;;;;15.91;91.31934;942.1199;;;;
2021/06/09 05:48:55;;;;;;;9.1;5.2;;;;;;;15.97;91.40234;942.0882;;;;
2021/06/09 05:51:20;;;;;;;6.3;5.5;;;;;;;16.01;90.88965;942.1298;;;;
2021/06/09 05:53:45;;;;;;;10.3;5.6;;;;;;;15.94;91.41797;942.1044;;;;
2021/06/09 05:56:11;;;;;;;13.2;6.5;;;;;;;15.97;91.64453;942.0825;;;;
2021/06/09 05:58:36;;;;;;;8.2;5.7;;;;;;;16.14;90.90625;942.0562;;;;
2021/06/09 06:01:04;;;;;;;6.9;5.3;;;;;;;16.2;89.51758;942.0823;;;;
2021/06/09 06:03:30;;;;;;;7.8;5.5;;;;;;;16.31;89.21777;942.0433;;;;
2021/06/09 06:05:56;;;;;;;9.4;5.7;;;;;;;16.3;88.83203;942.0958;;;;
2021/06/09 06:08:20;;;;;;;9.6;5.9;;;;;;;16.35;89.37695;942.0833;;;;
2021/06/09 06:10:49;;;;;;;8.9;5.2;;;;;;;16.46;89.45703;942.0708;;;;
2021/06/09 06:13:18;;;;;;;7.7;5.4;;;;;;;16.65;89.2041;942.0457;;;;
2021/06/09 06:15:51;;;;;;;6;5.1;;;;;;;16.65;88.01172;942.0504;;;;
2021/06/09 06:18:16;;;;;;;6.5;5.3;;;;;;;16.73;87.91211;942.0002;;;;
2021/06/09 06:20:41;;;;;;;6.4;5.1;;;;;;;16.74;87.96191;941.9872;;;;
2021/06/09 06:23:08;;;;;;;7.9;5.8;;;;;;;16.72;87.86426;942.0911;;;;
2021/06/09 06:25:34;;;;;;;6.6;5.2;;;;;;;16.71;88.00098;942.0905;;;;
2021/06/09 06:28:02;;;;;;;6.5;5.2;;;;;;;16.79;87.99219;942.0825;;;;
2021/06/09 06:30:27;;;;;;;6.2;5.3;;;;;;;16.87;87.41992;942.0804;;;;
2021/06/09 06:33:07;;;;;;;6.3;4.7;;;;;;;16.91;87.34375;942.0649;;;;
2021/06/09 06:35:35;;;;;;;6.2;4.8;;;;;;;16.99;86.33301;942.0601;;;;
2021/06/09 06:38:00;;;;;;;5.3;4.2;;;;;;;16.9;86.2666;942.0609;;;;
2021/06/09 06:40:28;;;;;;;7;5.1;;;;;;;17.02;86.85742;942.0302;;;;
2021/06/09 06:42:52;;;;;;;6.5;5;;;;;;;16.88;86.57422;942.07;;;;
2021/06/09 06:45:17;;;;;;;5.5;4.5;;;;;;;17.15;85.65527;942.0469;;;;
2021/06/09 06:47:43;;;;;;;6.2;4.7;;;;;;;17.45;85.7373;942.0226;;;;
2021/06/09 06:50:08;;;;;;;5.5;4.5;;;;;;;17.53;82.17773;941.9645;;;;
2021/06/09 06:52:36;;;;;;;4.8;4.3;;;;;;;17.57;82.1416;941.9551;;;;
2021/06/09 06:55:01;;;;;;;6.4;4.4;;;;;;;17.67;81.19531;941.9543;;;;
2021/06/09 06:57:28;;;;;;;4.7;4.1;;;;;;;17.59;80.79688;941.9478;;;;
2021/06/09 07:00:10;;;;;;;5;4.5;;;;;;;17.68;81.82324;941.9078;;;;
2021/06/09 07:02:35;;;;;;;6.6;4.2;;;;;;;18.02;81.81738;941.8903;;;;
2021/06/09 07:05:00;;;;;;;5.7;4;;;;;;;18.19;79.58398;941.9984;;;;
2021/06/09 07:07:25;;;;;;;7;4.3;;;;;;;18.42;79.70605;942.006;;;;
2021/06/09 07:09:51;;;;;;;5;4.1;;;;;;;18.67;79.18164;941.9998;;;;
2021/06/09 07:12:17;;;;;;;3.9;3.6;;;;;;;18.56;77.67383;941.9913;;;;
2021/06/09 07:14:45;;;;;;;5.1;4.1;;;;;;;18.61;77.37891;941.926;;;;
2021/06/09 07:17:11;;;;;;;5.3;4;;;;;;;18.96;78.66309;941.9866;;;;
2021/06/09 07:19:40;;;;;;;4.3;3.9;;;;;;;19.14;76.00586;942.0427;;;;
2021/06/09 07:22:11;;;;;;;4.7;4.2;;;;;;;19.11;73.93945;942.014;;;;
2021/06/09 07:24:41;;;;;;;4.8;3.9;;;;;;;19.21;76.42578;942.0461;;;;
2021/06/09 07:27:06;;;;;;;6.2;4.5;;;;;;;19.34;75.0498;942.0256;;;;
2021/06/09 07:29:34;;;;;;;7.8;4.3;;;;;;;19.56;74.90137;942.0179;;;;
2021/06/09 07:31:59;;;;;;;4.4;4;;;;;;;19.1;74.6123;942.045;;;;
2021/06/09 07:34:30;;;;;;;5.1;4.1;;;;;;;19.28;78.47461;942.0469;;;;
2021/06/09 07:37:01;;;;;;;8.9;4.4;;;;;;;19.39;76.87793;942.0536;;;;
2021/06/09 07:39:27;;;;;;;7.8;4.5;;;;;;;19.56;77.12793;942.0803;;;;
2021/06/09 07:41:51;;;;;;;7.3;5.7;;;;;;;19.76;78.09473;942.1;;;;
2021/06/09 07:44:16;;;;;;;21.6;17.2;;;;;;;19.66;75.45313;942.0447;;;;
2021/06/09 07:46:44;;;;;;;22.4;17.9;;;;;;;19.82;75.13086;942.0675;;;;
2021/06/09 07:49:11;;;;;;;33.9;27.4;;;;;;;20.07;75.39551;942.0871;;;;
2021/06/09 07:51:36;;;;;;;6.7;3.8;;;;;;;20.12;71.81055;942.0463;;;;
2021/06/09 07:54:03;;;;;;;5.5;3.9;;;;;;;20.16;73.2168;942.1401;;;;
2021/06/09 07:56:32;;;;;;;8.2;4.1;;;;;;;20.53;72.4248;942.0958;;;;
2021/06/09 07:58:53;;;;;;;4.3;3.7;;;;;;;20.39;73.15039;942.1428;;;;
2021/06/09 08:01:18;;;;;;;6.9;4.2;;;;;;;20.94;72.25977;942.1091;;;;
2021/06/09 08:03:44;;;;;;;5.5;4;;;;;;;21.28;69.58789;942.1471;;;;
2021/06/09 08:06:10;;;;;;;5.9;3.7;;;;;;;21.61;69.89746;942.1945;;;;
2021/06/09 08:08:35;;;;;;;6.6;3.9;;;;;;;21.8;70.43066;942.1361;;;;
2021/06/09 08:11:02;;;;;;;4.8;3.7;;;;;;;22.21;67.41211;942.1644;;;;
2021/06/09 08:13:27;;;;;;;7.7;4;;;;;;;22.54;64.28125;942.1819;;;;
2021/06/09 08:15:54;;;;;;;4;3.6;;;;;;;22.39;63.09961;942.1535;;;;
2021/06/09 08:18:25;;;;;;;6.3;4.1;;;;;;;22.36;63.18848;942.0797;;;;
2021/06/09 08:20:49;;;;;;;6.3;4.6;;;;;;;22.87;64.84473;942.0783;;;;
2021/06/09 08:23:17;;;;;;;5.9;4.2;;;;;;;23.35;62.30566;942.1306;;;;
2021/06/09 08:25:42;;;;;;;5.5;4.2;;;;;;;22.89;62.99316;942.1362;;;;
2021/06/09 08:28:08;;;;;;;7.3;4;;;;;;;23.12;60.5;942.1881;;;;
2021/06/09 08:30:33;;;;;;;4.5;3.9;;;;;;;22.33;64.87305;942.1937;;;;
2021/06/09 08:33:02;;;;;;;4.6;4;;;;;;;22.51;64.28906;942.2201;;;;
2021/06/09 08:35:28;;;;;;;4.5;4.1;;;;;;;22.48;60.7998;942.2089;;;;
2021/06/09 08:37:53;;;;;;;5.4;4.1;;;;;;;22.77;62.09766;942.1764;;;;
2021/06/09 08:40:18;;;;;;;5.9;3.7;;;;;;;22.85;62.9541;942.1478;;;;
2021/06/09 08:42:44;;;;;;;6.8;4;;;;;;;22.58;64.65137;942.226;;;;
2021/06/09 08:45:09;;;;;;;5.1;4.1;;;;;;;22.58;64.51074;942.2234;;;;
2021/06/09 08:47:36;;;;;;;4.4;4;;;;;;;22.25;65.35352;942.2358;;;;
2021/06/09 08:50:01;;;;;;;5.5;4;;;;;;;22.45;64.58594;942.226;;;;
2021/06/09 08:52:26;;;;;;;5.5;4.1;;;;;;;22.7;63.78809;942.1691;;;;
2021/06/09 08:54:52;;;;;;;4.5;3.9;;;;;;;22.83;63.85449;942.1453;;;;
2021/06/09 08:57:17;;;;;;;4.7;3.7;;;;;;;23.07;60.59863;942.1987;;;;
2021/06/09 08:59:44;;;;;;;6.8;4.1;;;;;;;23.3;59.39648;942.2076;;;;
2021/06/09 09:02:09;;;;;;;4.4;4;;;;;;;23.07;60.38672;942.2004;;;;
2021/06/09 09:04:33;;;;;;;4.5;3.7;;;;;;;22.85;59.73438;942.191;;;;
2021/06/09 09:06:59;;;;;;;4.1;3.8;;;;;;;22.53;60.9248;942.2113;;;;
2021/06/09 09:09:24;;;;;;;4;3.6;;;;;;;22.46;63.89355;942.194;;;;
2021/06/09 09:11:49;;;;;;;4.2;3.5;;;;;;;22.48;61.21094;942.1365;;;;
2021/06/09 09:14:14;;;;;;;4.8;4;;;;;;;22.9;61.2207;942.1236;;;;
2021/06/09 09:16:40;;;;;;;5;3.9;;;;;;;23.22;59.18555;942.1831;;;;
2021/06/09 09:19:13;;;;;;;5.2;4;;;;;;;23.32;60.0332;942.1581;;;;
2021/06/09 09:21:32;;;;;;;6.6;4.1;;;;;;;23.35;59.63867;942.1783;;;;
2021/06/09 09:23:57;;;;;;;5.5;4.7;;;;;;;23.51;60.4248;942.1511;;;;
2021/06/09 09:26:26;;;;;;;5.5;4.3;;;;;;;23.52;58.40332;942.1875;;;;
2021/06/09 09:28:50;;;;;;;4.8;4.4;;;;;;;23.8;57.45117;942.2327;;;;
2021/06/09 09:31:19;;;;;;;6.6;4.8;;;;;;;23.9;55.63965;942.157;;;;
2021/06/09 09:33:44;;;;;;;6.2;5.2;;;;;;;24.02;56.67773;942.2026;;;;
2021/06/09 09:36:09;;;;;;;6.2;5.6;;;;;;;23.92;56.06543;942.2158;;;;
2021/06/09 09:38:38;;;;;;;6.1;5.5;;;;;;;24;57.1123;942.177;;;;
2021/06/09 09:41:08;;;;;;;6.1;5.5;;;;;;;23.41;59.16406;942.2179;;;;
2021/06/09 09:43:32;;;;;;;7.9;5.7;;;;;;;23.5;58.97559;942.2639;;;;
2021/06/09 09:46:00;;;;;;;7.7;5.7;;;;;;;23.34;60.49512;942.2737;;;;
2021/06/09 09:48:25;;;;;;;6.7;6;;;;;;;23.41;59.44629;942.2706;;;;
2021/06/09 09:50:50;;;;;;;6.7;5.7;;;;;;;23.34;59.44922;942.2778;;;;
2021/06/09 09:53:20;;;;;;;8;6.5;;;;;;;23.13;61.20801;942.308;;;;
2021/06/09 09:55:44;;;;;;;8;6.4;;;;;;;23.17;60.97656;942.2938;;;;
2021/06/09 09:58:11;;;;;;;6.8;6.1;;;;;;;22.88;62.33398;942.3142;;;;
2021/06/09 10:00:37;;;;;;;7.9;6.3;;;;;;;22.74;63.05371;942.3367;;;;
2021/06/09 10:03:02;;;;;;;10.6;6.9;;;;;;;22.44;65.09961;942.2929;;;;
2021/06/09 10:05:27;;;;;;;7.1;6.4;;;;;;;22.32;67.13477;942.2921;;;;
2021/06/09 10:07:52;;;;;;;7.5;6.6;;;;;;;22.27;66.92871;942.3178;;;;
2021/06/09 10:10:17;;;;;;;8.5;7.1;;;;;;;21.83;69.14648;942.3627;;;;
2021/06/09 10:12:43;;;;;;;7.9;6.7;;;;;;;21.99;67.14453;942.3218;;;;
2021/06/09 10:15:08;;;;;;;7.6;6.8;;;;;;;22.09;66.91309;942.2611;;;;
2021/06/09 10:17:38;;;;;;;8.6;7;;;;;;;22.09;66.99512;942.3495;;;;
2021/06/09 10:20:04;;;;;;;8.4;6.6;;;;;;;22.18;67.0791;942.3306;;;;
2021/06/09 10:22:32;;;;;;;10.2;7.2;;;;;;;22.37;66.70801;942.2542;;;;
2021/06/09 10:24:57;;;;;;;9.5;7.4;;;;;;;22.24;69.50293;942.2717;;;;
2021/06/09 10:27:22;;;;;;;8.2;7.3;;;;;;;22.37;67.81152;942.2297;;;;
2021/06/09 10:29:48;;;;;;;9;7;;;;;;;22.48;67.3125;942.2217;;;;
2021/06/09 10:32:14;;;;;;;8.7;7.1;;;;;;;22.52;66.15625;942.2198;;;;
2021/06/09 10:34:42;;;;;;;9.4;7.3;;;;;;;22.46;66.37109;942.1387;;;;
2021/06/09 10:37:06;;;;;;;8.7;7.1;;;;;;;22.76;66.32129;942.1411;;;;
2021/06/09 10:39:32;;;;;;;9.2;7.7;;;;;;;22.74;67.66699;942.1028;;;;
2021/06/09 10:41:57;;;;;;;9.4;7.4;;;;;;;22.55;69.02441;942.1156;;;;
2021/06/09 10:44:24;;;;;;;8.1;7.2;;;;;;;22.82;70.75781;942.0672;;;;
2021/06/09 10:46:49;;;;;;;7.9;6.8;;;;;;;22.8;65.7041;942.0483;;;;
2021/06/09 10:49:14;;;;;;;8.7;6.9;;;;;;;23.05;70.15918;942.0005;;;;
2021/06/09 10:51:43;;;;;;;7.8;6.7;;;;;;;23.41;65.43066;941.9634;;;;
2021/06/09 10:54:12;;;;;;;6.8;6.1;;;;;;;24.03;63.60156;941.9427;;;;
2021/06/09 10:56:33;;;;;;;7.2;6.5;;;;;;;24.12;65.96973;941.8973;;;;
2021/06/09 10:58:58;;;;;;;10.5;6.4;;;;;;;23.9;65.29004;941.8881;;;;
2021/06/09 11:01:24;;;;;;;6.8;6.2;;;;;;;24.22;62.79395;941.8689;;;;
2021/06/09 11:03:53;;;;;;;7.1;6.4;;;;;;;24.53;61.90527;941.8557;;;;
2021/06/09 11:06:21;;;;;;;6.5;5.8;;;;;;;24.87;62.08301;941.8201;;;;
2021/06/09 11:08:46;;;;;;;6.5;5.8;;;;;;;25.1;60.41504;941.8522;;;;
2021/06/09 11:11:16;;;;;;;8.5;6.3;;;;;;;25.24;61.75684;941.8359;;;;
2021/06/09 11:13:47;;;;;;;9.2;6.9;;;;;;;25.31;62.17871;941.793;;;;
2021/06/09 11:16:13;;;;;;;7.8;6.7;;;;;;;25.11;65.72754;941.8068;;;;
2021/06/09 11:18:41;;;;;;;6.7;5.8;;;;;;;24.86;64.4043;941.7667;;;;
2021/06/09 11:21:04;;;;;;;7.1;6.5;;;;;;;24.9;64.57617;941.814;;;;
2021/06/09 11:23:33;;;;;;;6.9;6.2;;;;;;;24.44;66.0293;941.8267;;;;
2021/06/09 11:25:58;;;;;;;7.6;6;;;;;;;24.82;61.65137;941.7746;;;;
2021/06/09 11:28:25;;;;;;;11;6.4;;;;;;;24.94;61.91504;941.8091;;;;
2021/06/09 11:30:53;;;;;;;8.2;7;;;;;;;25.14;63.39551;941.7695;;;;
2021/06/09 11:33:18;;;;;;;8.5;7.4;;;;;;;24.41;65.56641;941.7784;;;;
2021/06/09 11:35:44;;;;;;;7.7;6.9;;;;;;;24.11;66.21582;941.7561;;;;
2021/06/09 11:38:09;;;;;;;11.6;7.6;;;;;;;24.33;65.63672;941.7801;;;;
2021/06/09 11:40:34;;;;;;;8.4;7.2;;;;;;;23.8;68.51367;941.7349;;;;
2021/06/09 11:43:00;;;;;;;7.6;6.9;;;;;;;24.43;63.69531;941.6667;;;;
2021/06/09 11:45:33;;;;;;;8.8;7.1;;;;;;;24.74;62.75;941.767;;;;
2021/06/09 11:47:51;;;;;;;9.2;7.1;;;;;;;24.7;61.75293;941.7319;;;;
2021/06/09 11:50:20;;;;;;;8.1;6.7;;;;;;;24.06;64.06641;941.7458;;;;
2021/06/09 11:52:45;;;;;;;9.4;7;;;;;;;24.2;61.80078;941.6599;;;;
2021/06/09 11:55:10;;;;;;;8.5;7.2;;;;;;;24.19;59.2666;941.6294;;;;
2021/06/09 11:57:35;;;;;;;7.1;6.1;;;;;;;24.11;57.66602;941.5753;;;;
2021/06/09 12:00:00;;;;;;;8.1;6.2;;;;;;;23.97;60.22754;941.5617;;;;
2021/06/09 12:02:25;;;;;;;7.5;6.8;;;;;;;23.7;62.19043;941.5583;;;;
2021/06/09 12:04:50;;;;;;;7.1;6.4;;;;;;;22.71;64.95117;941.5556;;;;
2021/06/09 12:07:17;;;;;;;7.6;6.4;;;;;;;22.46;63.64746;941.5609;;;;
2021/06/09 12:09:42;;;;;;;8.3;6.2;;;;;;;22.22;64.35352;941.5628;;;;
2021/06/09 12:12:08;;;;;;;7.4;6.4;;;;;;;21.67;68.12598;941.5878;;;;
2021/06/09 12:14:33;;;;;;;8.1;6.6;;;;;;;21.67;67.39941;941.5617;;;;
2021/06/09 12:17:03;;;;;;;7.4;6.6;;;;;;;21.48;69.30273;941.6358;;;;
2021/06/09 12:19:28;;;;;;;10.1;6.8;;;;;;;21.71;68.8125;941.6287;;;;
2021/06/09 12:21:56;;;;;;;9.5;7.2;;;;;;;21.62;71.2793;941.6278;;;;
2021/06/09 12:24:21;;;;;;;6.8;6;;;;;;;21.95;65.66113;941.632;;;;
2021/06/09 12:26:49;;;;;;;8.1;5.8;;;;;;;21.53;62.77832;941.5986;;;;
2021/06/09 12:29:14;;;;;;;5.1;4.4;;;;;;;21.28;60.57715;941.6368;;;;
2021/06/09 12:31:39;;;;;;;6.7;4.4;;;;;;;21.37;58.91699;941.6447;;;;
2021/06/09 12:34:10;;;;;;;4.4;4;;;;;;;21.62;58.43457;941.5679;;;;
2021/06/09 12:36:37;;;;;;;5.5;4.3;;;;;;;21.69;56.18262;941.5676;;;;
2021/06/09 12:39:02;;;;;;;5.3;3.9;;;;;;;21.73;56.29395;941.5723;;;;
2021/06/09 12:41:30;;;;;;;6.9;4.3;;;;;;;21.98;56.69922;941.6027;;;;
2021/06/09 12:43:55;;;;;;;7.8;4;;;;;;;22.43;56.31152;941.5595;;;;
2021/06/09 12:46:21;;;;;;;4.3;3.9;;;;;;;22.22;56.21582;941.5433;;;;
2021/06/09 12:48:50;;;;;;;5.3;4.1;;;;;;;22.44;53.36816;941.5664;;;;
2021/06/09 12:51:11;;;;;;;4.6;4.1;;;;;;;22.84;52.52441;941.5399;;;;
2021/06/09 12:53:36;;;;;;;5.9;4.5;;;;;;;23.05;55.52051;941.4269;;;;
2021/06/09 12:56:05;;;;;;;5.5;4.4;;;;;;;23.07;53.83105;941.4945;;;;
2021/06/09 12:58:28;;;;;;;4.8;4.4;;;;;;;23.13;54.91992;941.4144;;;;
2021/06/09 13:00:53;;;;;;;5.3;4.9;;;;;;;23.37;53.96289;941.3113;;;;
2021/06/09 13:03:19;;;;;;;5.4;4.5;;;;;;;23.87;53.83398;941.3237;;;;
2021/06/09 13:05:44;;;;;;;6.3;4.8;;;;;;;23.86;53.0918;941.2273;;;;
2021/06/09 13:08:09;;;;;;;5.4;4.9;;;;;;;23.96;54.89355;941.274;;;;
2021/06/09 13:10:35;;;;;;;6.5;4.8;;;;;;;24.25;52.90234;941.2897;;;;
2021/06/09 13:13:00;;;;;;;7.1;5.1;;;;;;;24.52;52.03906;941.3049;;;;
2021/06/09 13:15:33;;;;;;;5.6;4.7;;;;;;;24.47;57.19434;941.2188;;;;
2021/06/09 13:18:05;;;;;;;7.1;5.3;;;;;;;24.49;53.99219;941.166;;;;
2021/06/09 13:20:26;;;;;;;5.6;5;;;;;;;24.46;54.75488;941.1003;;;;
2021/06/09 13:22:54;;;;;;;5.5;4.8;;;;;;;24.62;53.84277;941.0209;;;;
2021/06/09 13:25:19;;;;;;;5.9;5;;;;;;;24.88;52.52832;940.9551;;;;
2021/06/09 13:27:47;;;;;;;8.7;5.5;;;;;;;24.91;50.33789;940.9001;;;;
2021/06/09 13:30:13;;;;;;;5.3;4.8;;;;;;;24.52;51.11914;940.9056;;;;
2021/06/09 13:32:40;;;;;;;6.9;5.6;;;;;;;24.81;52.53223;940.8438;;;;
2021/06/09 13:35:05;;;;;;;7;5.2;;;;;;;25.35;52.51367;940.8611;;;;
2021/06/09 13:37:31;;;;;;;5.5;5;;;;;;;25.88;50.36523;940.8809;;;;
2021/06/09 13:39:56;;;;;;;5.6;5.1;;;;;;;25.61;49.30664;940.8499;;;;
2021/06/09 13:42:30;;;;;;;6.6;5.4;;;;;;;25.69;46.1709;940.8273;;;;
2021/06/09 13:44:50;;;;;;;5.6;5;;;;;;;25.65;48.47168;940.8237;;;;
2021/06/09 13:47:15;;;;;;;5.5;4.7;;;;;;;25.76;47.40918;940.7798;;;;
2021/06/09 13:49:43;;;;;;;5;4.5;;;;;;;25.89;48.04883;940.7877;;;;
2021/06/09 13:52:08;;;;;;;5.9;4.6;;;;;;;25.93;44.80176;940.7584;;;;
2021/06/09 13:54:33;;;;;;;5.6;5.1;;;;;;;25.82;46.98828;940.7693;;;;
2021/06/09 13:56:58;;;;;;;5.9;5.3;;;;;;;25.67;47.03223;940.7177;;;;
2021/06/09 13:59:23;;;;;;;5.9;5.3;;;;;;;25.45;49.57227;940.7059;;;;
2021/06/09 14:01:50;;;;;;;9.6;5.4;;;;;;;24.69;51.7998;940.7623;;;;
2021/06/09 14:04:15;;;;;;;7.7;6.5;;;;;;;23.78;54.64746;940.8323;;;;
2021/06/09 14:06:40;;;;;;;6.8;6.1;;;;;;;23.43;54.99219;940.795;;;;
2021/06/09 14:09:06;;;;;;;8.9;5.7;;;;;;;23.36;55.94727;940.8094;;;;
2021/06/09 14:11:30;;;;;;;7;6.3;;;;;;;22.91;58.3584;940.7272;;;;
2021/06/09 14:13:59;;;;;;;6.6;6;;;;;;;22.6;59.11426;940.7213;;;;
2021/06/09 14:16:29;;;;;;;8.6;5.8;;;;;;;22.57;59.37988;940.6906;;;;
2021/06/09 14:18:54;;;;;;;7.5;6;;;;;;;22.43;60.54688;940.7204;;;;
2021/06/09 14:21:19;;;;;;;6.4;5.8;;;;;;;22.44;60.02051;940.6962;;;;
2021/06/09 14:23:44;;;;;;;6.7;5.4;;;;;;;22.55;59.84668;940.7367;;;;
2021/06/09 14:26:11;;;;;;;6.5;5.9;;;;;;;22.68;60.05273;940.7603;;;;
2021/06/09 14:28:35;;;;;;;8.1;5.8;;;;;;;22.53;60.86621;940.7706;;;;
2021/06/09 14:31:01;;;;;;;6.5;5.9;;;;;;;22.44;61.26367;940.832;;;;
2021/06/09 14:33:28;;;;;;;7.3;5.6;;;;;;;22.44;60.85352;940.7985;;;;
2021/06/09 14:35:56;;;;;;;6.5;5.8;;;;;;;22.23;61.43359;940.789;;;;
2021/06/09 14:38:18;;;;;;;8.4;6.3;;;;;;;22.17;61.53223;940.7654;;;;
2021/06/09 14:40:43;;;;;;;6.9;5.8;;;;;;;22.06;61.99805;940.8814;;;;
2021/06/09 14:43:11;;;;;;;6.2;5.6;;;;;;;21.75;62;940.855;;;;
2021/06/09 14:45:36;;;;;;;6.4;5.7;;;;;;;21.43;62.7168;940.9233;;;;
2021/06/09 14:48:18;;;;;;;7.3;5.6;;;;;;;21.47;61.83398;940.9171;;;;
2021/06/09 14:50:26;;;;;;;6.3;5.6;;;;;;;21.42;62.17578;940.9645;;;;
2021/06/09 14:52:51;;;;;;;6.6;5.9;;;;;;;21.36;62.87109;940.9444;;;;
2021/06/09 14:55:21;;;;;;;5.9;5.3;;;;;;;21.22;63.53027;941.1152;;;;
2021/06/09 14:57:45;;;;;;;7;5.4;;;;;;;21.16;63.59082;941.1839;;;;
2021/06/09 15:00:14;;;;;;;7.7;5.8;;;;;;;21.02;63.68848;941.2505;;;;
2021/06/09 15:02:37;;;;;;;7.4;5.7;;;;;;;20.71;64.23926;941.3585;;;;
2021/06/09 15:05:02;;;;;;;6.6;5.3;;;;;;;20.44;65.2041;941.47;;;;
2021/06/09 15:07:28;;;;;;;5.8;5.2;;;;;;;20.31;65.13867;941.4828;;;;
2021/06/09 15:09:53;;;;;;;7;5.1;;;;;;;20.12;66.38281;941.5831;;;;
2021/06/09 15:12:18;;;;;;;7.7;5.4;;;;;;;19.99;68.45117;941.5864;;;;
2021/06/09 15:14:46;;;;;;;7;5.8;;;;;;;19.92;69.68848;941.5985;;;;
2021/06/09 15:17:13;;;;;;;7;5.5;;;;;;;19.65;70.94141;941.6199;;;;
2021/06/09 15:19:38;;;;;;;7.2;6.1;;;;;;;19.26;73.51074;941.671;;;;
2021/06/09 15:22:04;;;;;;;10;5.5;;;;;;;19.02;74.86621;941.7241;;;;
2021/06/09 15:24:29;;;;;;;7.4;5.9;;;;;;;18.5;77.28027;941.7583;;;;
2021/06/09 15:26:57;;;;;;;8.1;6.2;;;;;;;18.51;77.80469;941.8056;;;;
2021/06/09 15:29:23;;;;;;;9.3;6.3;;;;;;;18.29;78.625;941.853;;;;
2021/06/09 15:31:49;;;;;;;9.3;6.5;;;;;;;18.55;77.03223;941.9026;;;;
2021/06/09 15:34:14;;;;;;;8.1;6.6;;;;;;;18.64;76.69727;941.9302;;;;
2021/06/09 15:36:43;;;;;;;7.3;6.2;;;;;;;18.42;77.47559;941.9708;;;;
2021/06/09 15:39:08;;;;;;;7.5;6.4;;;;;;;18.48;76.98438;942.0248;;;;
2021/06/09 15:41:36;;;;;;;7.4;6.5;;;;;;;18.27;78.73828;942.0613;;;;